Time;durP1;ratioP1;P1;durP2;ratioP2;P2;SDS_P1;SDS_P2;PMS_P1;PMS_P2;Temp;Humidity;BMP_temperature;BMP_pressure;BME280_temperature;BME280_humidity;BME280_pressure;Samples;Min_cycle;Max_cycle;Signal;HPM_P1;HPM_P2
2022/09/01 00:01:41;;;;;;;5.80;3.50;;;18.00;99.90;;;;;;5078708;28;20080;-80
2022/09/01 00:04:15;;;;;;;6.70;4.03;;;18.00;99.90;;;;;;5079123;28;20106;-80
2022/09/01 00:06:42;;;;;;;8.43;4.18;;;17.90;99.90;;;;;;5097513;28;20055;-80
2022/09/01 00:09:12;;;;;;;5.88;3.95;;;17.90;99.90;;;;;;5089735;28;20127;-80
2022/09/01 00:11:41;;;;;;;5.20;4.03;;;17.90;99.90;;;;;;5096133;28;20131;-80
2022/09/01 00:14:14;;;;;;;7.07;4.18;;;17.90;99.90;;;;;;5085473;28;20068;-82
2022/09/01 00:16:59;;;;;;;5.35;3.90;;;17.90;99.90;;;;;;5074065;28;20079;-83
2022/09/01 00:19:26;;;;;;;5.40;3.77;;;17.90;99.90;;;;;;5073042;28;20048;-81
2022/09/01 00:21:53;;;;;;;6.00;4.38;;;17.90;99.90;;;;;;5092108;28;20078;-82
2022/09/01 00:24:20;;;;;;;4.72;3.97;;;17.80;99.90;;;;;;5091085;28;20494;-81
2022/09/01 00:26:47;;;;;;;6.15;4.18;;;17.80;99.90;;;;;;5087914;28;20139;-81
2022/09/01 00:29:15;;;;;;;4.97;4.13;;;17.70;99.90;;;;;;5089234;28;20083;-81
2022/09/01 00:31:42;;;;;;;7.07;4.10;;;17.70;99.90;;;;;;5087242;28;20048;-81
2022/09/01 00:34:10;;;;;;;7.18;4.57;;;17.80;99.90;;;;;;5081732;28;20064;-81
2022/09/01 00:36:36;;;;;;;4.60;4.18;;;17.70;99.90;;;;;;5085900;28;20140;-81
2022/09/01 00:39:05;;;;;;;4.35;3.80;;;17.70;99.90;;;;;;5082023;28;20135;-82
2022/09/01 00:41:37;;;;;;;6.82;4.55;;;17.70;99.90;;;;;;5083706;28;20083;-80
2022/09/01 00:44:07;;;;;;;4.72;4.07;;;17.70;99.90;;;;;;5075583;28;20048;-78
2022/09/01 00:46:48;;;;;;;6.57;4.32;;;17.60;99.90;;;;;;5080594;28;20059;-80
2022/09/01 00:49:30;;;;;;;7.07;4.63;;;17.60;99.90;;;;;;5077760;28;20135;-80
2022/09/01 00:52:12;;;;;;;7.53;4.13;;;17.60;99.90;;;;;;5085441;28;20069;-83
2022/09/01 00:54:44;;;;;;;5.45;4.65;;;17.60;99.90;;;;;;5096033;28;20497;-81
2022/09/01 00:57:12;;;;;;;10.73;5.00;;;17.60;99.90;;;;;;5089607;28;20513;-81
2022/09/01 00:59:45;;;;;;;5.63;4.13;;;17.50;99.90;;;;;;5093804;28;20570;-80
2022/09/01 01:02:12;;;;;;;6.85;4.43;;;17.60;99.90;;;;;;5089026;28;20525;-78
2022/09/01 01:04:42;;;;;;;6.43;4.25;;;17.60;99.90;;;;;;5092953;28;20056;-81
2022/09/01 01:07:10;;;;;;;6.00;4.72;;;17.60;99.90;;;;;;5090455;28;20048;-81
2022/09/01 01:09:41;;;;;;;7.95;5.10;;;17.60;99.90;;;;;;5090352;28;20080;-82
2022/09/01 01:12:12;;;;;;;7.65;5.68;;;17.70;99.90;;;;;;5070584;28;20051;-80
2022/09/01 01:14:40;;;;;;;10.48;7.57;;;17.70;99.90;;;;;;5068478;28;20045;-82
2022/09/01 01:17:11;;;;;;;18.10;10.48;;;17.70;99.90;;;;;;5086655;28;20123;-81
2022/09/01 01:25:26;;;;;;;19.50;11.25;;;17.80;99.90;;;;;;5083842;28;20048;-82
2022/09/01 01:28:05;;;;;;;9.90;6.60;;;17.80;99.90;;;;;;5074509;28;20080;-81
2022/09/01 01:30:34;;;;;;;7.80;5.28;;;17.70;99.90;;;;;;5080017;28;20088;-80
2022/09/01 01:33:01;;;;;;;7.65;5.47;;;17.70;99.90;;;;;;5076998;28;20076;-81
2022/09/01 01:35:30;;;;;;;8.32;6.38;;;17.70;99.90;;;;;;5078888;28;20040;-81
2022/09/01 01:37:57;;;;;;;11.10;6.93;;;17.70;99.90;;;;;;5080108;28;20075;-80
2022/09/01 01:40:24;;;;;;;10.55;6.90;;;17.70;99.90;;;;;;5096913;28;20089;-81
2022/09/01 01:42:53;;;;;;;10.23;6.72;;;17.60;99.90;;;;;;5084841;28;20135;-81
2022/09/01 01:45:21;;;;;;;7.32;6.15;;;17.60;99.90;;;;;;5093958;28;20063;-81
2022/09/01 01:47:52;;;;;;;8.10;6.15;;;17.60;99.90;;;;;;5093154;28;20108;-81
2022/09/01 01:50:32;;;;;;;8.90;5.60;;;17.50;99.90;;;;;;5091928;28;20056;-80
2022/09/01 01:53:01;;;;;;;7.75;5.95;;;17.50;99.90;;;;;;5092124;28;20049;-81
2022/09/01 01:55:36;;;;;;;5.55;4.93;;;17.50;99.90;;;;;;5090439;28;20055;-81
2022/09/01 01:58:04;;;;;;;10.18;5.45;;;17.50;99.90;;;;;;5090429;28;20055;-80
2022/09/01 02:00:33;;;;;;;7.13;5.07;;;17.40;99.90;;;;;;5090747;28;20090;-80
2022/09/01 02:03:00;;;;;;;10.48;5.47;;;17.40;99.90;;;;;;5089855;28;20045;-81
2022/09/01 02:05:30;;;;;;;6.90;5.70;;;17.30;99.90;;;;;;5078400;28;20084;-81
2022/09/01 02:08:08;;;;;;;6.57;5.65;;;17.30;99.90;;;;;;5083599;28;20048;-81
2022/09/01 02:10:41;;;;;;;7.85;5.47;;;17.20;99.90;;;;;;5080475;28;20071;-80
2022/09/01 02:13:14;;;;;;;13.20;5.60;;;17.30;99.90;;;;;;5078271;28;20120;-81
2022/09/01 02:15:53;;;;;;;5.95;4.88;;;17.10;99.90;;;;;;5080524;28;20052;-81
2022/09/01 02:18:23;;;;;;;7.30;5.07;;;17.10;99.90;;;;;;5077821;28;20048;-83
2022/09/01 02:20:51;;;;;;;6.20;5.25;;;17.10;99.90;;;;;;5077704;28;20084;-80
2022/09/01 02:23:22;;;;;;;6.93;4.70;;;17.10;99.90;;;;;;5076707;28;20098;-80
2022/09/01 02:25:53;;;;;;;7.70;4.80;;;17.00;99.90;;;;;;5088840;28;20386;-81
2022/09/01 02:28:41;;;;;;;7.88;5.43;;;17.00;99.90;;;;;;5091389;28;20048;-80
2022/09/01 02:31:10;;;;;;;6.43;5.38;;;16.90;99.90;;;;;;5087675;28;20135;-79
2022/09/01 02:33:38;;;;;;;8.68;4.88;;;17.00;99.90;;;;;;5085547;28;20490;-80
2022/09/01 02:36:13;;;;;;;6.78;5.28;;;17.00;99.90;;;;;;5086296;28;20045;-80
2022/09/01 02:38:43;;;;;;;8.90;4.80;;;16.90;99.90;;;;;;5084869;28;20131;-79
2022/09/01 02:41:13;;;;;;;8.50;4.97;;;17.00;99.90;;;;;;5087723;28;20058;-81
2022/09/01 02:43:42;;;;;;;7.90;5.38;;;17.00;99.90;;;;;;5083101;28;20074;-80
2022/09/01 02:46:09;;;;;;;6.20;4.80;;;17.00;99.90;;;;;;5087221;28;20056;-81
2022/09/01 02:48:38;;;;;;;7.72;5.07;;;17.00;99.90;;;;;;5084445;28;20048;-79
2022/09/01 02:51:15;;;;;;;8.32;5.18;;;17.00;99.90;;;;;;5084697;28;20080;-80
2022/09/01 02:53:43;;;;;;;6.30;5.35;;;17.00;99.90;;;;;;5081307;28;20414;-80
2022/09/01 02:56:13;;;;;;;10.48;4.85;;;17.00;99.90;;;;;;5080803;28;20098;-81
2022/09/01 02:58:44;;;;;;;6.20;5.20;;;16.90;99.90;;;;;;5079832;28;20139;-80
2022/09/01 03:01:31;;;;;;;6.40;5.70;;;16.90;99.90;;;;;;5077453;28;20074;-81
2022/09/01 03:04:07;;;;;;;7.05;5.30;;;17.00;99.90;;;;;;5074813;28;20421;-80
2022/09/01 03:06:36;;;;;;;5.38;4.65;;;16.90;99.90;;;;;;5076893;28;20058;-80
2022/09/01 03:09:06;;;;;;;6.32;5.50;;;16.90;99.90;;;;;;5075245;28;20433;-80
2022/09/01 03:11:36;;;;;;;7.57;5.33;;;16.80;99.90;;;;;;5080217;28;20508;-81
2022/09/01 03:14:04;;;;;;;5.95;5.03;;;16.80;99.90;;;;;;5094992;28;20087;-80
2022/09/01 03:16:31;;;;;;;6.45;5.03;;;16.80;99.90;;;;;;5093659;28;20048;-80
2022/09/01 03:18:59;;;;;;;7.90;5.20;;;16.80;99.90;;;;;;5095790;28;20429;-80
2022/09/01 03:21:25;;;;;;;7.55;5.10;;;16.80;99.90;;;;;;5095353;28;20135;-81
2022/09/01 03:23:53;;;;;;;10.35;5.18;;;16.70;99.90;;;;;;5094080;28;20155;-82
2022/09/01 03:26:21;;;;;;;7.38;5.20;;;16.70;99.90;;;;;;5091674;28;20139;-82
2022/09/01 03:28:50;;;;;;;6.82;4.75;;;16.70;99.90;;;;;;5089191;28;20048;-79
2022/09/01 03:31:18;;;;;;;8.23;4.97;;;16.70;99.90;;;;;;5089650;28;20148;-81
2022/09/01 03:33:45;;;;;;;6.28;4.72;;;16.60;99.90;;;;;;5090012;28;20040;-80
2022/09/01 03:36:17;;;;;;;8.65;4.85;;;16.50;99.90;;;;;;5089936;28;20066;-82
2022/09/01 03:38:47;;;;;;;7.05;4.95;;;16.60;99.90;;;;;;5086248;28;20048;-80
2022/09/01 03:41:17;;;;;;;6.03;4.95;;;16.50;99.90;;;;;;5081769;28;20052;-80
2022/09/01 03:43:45;;;;;;;6.30;5.00;;;16.60;99.90;;;;;;5079649;28;20483;-81
2022/09/01 03:46:20;;;;;;;6.03;4.68;;;16.60;99.90;;;;;;5085348;28;20494;-81
2022/09/01 03:48:50;;;;;;;7.63;5.47;;;16.60;99.90;;;;;;5081543;28;20425;-81
2022/09/01 03:51:21;;;;;;;11.80;5.60;;;16.70;99.90;;;;;;5084056;28;20070;-81
2022/09/01 03:53:53;;;;;;;5.57;4.95;;;16.70;99.90;;;;;;5078441;28;20051;-82
2022/09/01 03:56:23;;;;;;;8.20;5.55;;;16.80;99.90;;;;;;5082369;28;20059;-80
2022/09/01 03:58:50;;;;;;;5.47;4.65;;;16.80;99.90;;;;;;5091438;28;20068;-79
2022/09/01 04:01:18;;;;;;;7.30;5.70;;;16.80;99.90;;;;;;5100208;28;20048;-80
2022/09/01 04:03:46;;;;;;;8.52;4.88;;;16.80;99.90;;;;;;5096107;28;20055;-81
2022/09/01 04:06:13;;;;;;;10.20;5.88;;;16.80;99.90;;;;;;5095173;28;20139;-80
2022/09/01 04:08:41;;;;;;;13.15;6.60;;;16.80;99.90;;;;;;5093311;28;20091;-80
2022/09/01 04:11:16;;;;;;;13.18;7.28;;;16.80;99.90;;;;;;5093415;28;20048;-80
2022/09/01 04:13:45;;;;;;;14.55;8.10;;;16.80;99.90;;;;;;5091908;28;20123;-80
2022/09/01 04:19:18;;;;;;;17.45;10.90;;;16.90;99.90;;;;;;5087390;28;20613;-80
2022/09/01 04:21:50;;;;;;;26.50;12.02;;;17.00;99.90;;;;;;5087600;28;20134;-80
2022/09/01 04:24:17;;;;;;;39.83;13.18;;;17.00;99.90;;;;;;5084278;28;20131;-80
2022/09/01 04:26:48;;;;;;;33.40;12.80;;;16.90;99.90;;;;;;5084200;28;20052;-81
2022/09/01 04:29:18;;;;;;;;;;;17.00;99.90;;;;;;5084608;28;20079;-80
2022/09/01 04:31:50;;;;;;;34.22;11.57;;;17.00;99.90;;;;;;5080714;28;19924;-80
2022/09/01 04:34:18;;;;;;;27.70;13.63;;;17.00;99.90;;;;;;5084024;28;20052;-79
2022/09/01 04:36:45;;;;;;;18.98;13.15;;;17.00;99.90;;;;;;5082008;28;20088;-81
2022/09/01 04:39:15;;;;;;;18.77;10.52;;;17.00;99.90;;;;;;5079940;28;20048;-80
2022/09/01 04:41:44;;;;;;;11.52;8.32;;;17.00;99.90;;;;;;5075967;28;20056;-80
2022/09/01 04:44:15;;;;;;;18.20;9.88;;;17.00;99.90;;;;;;5074058;28;20061;-81
2022/09/01 04:46:46;;;;;;;19.23;10.48;;;17.00;99.90;;;;;;5094752;28;20463;-80
2022/09/01 04:49:18;;;;;;;22.85;11.48;;;17.00;99.90;;;;;;5095272;28;20063;-81
2022/09/01 04:51:48;;;;;;;20.73;10.45;;;17.00;99.90;;;;;;5090040;28;20306;-80
2022/09/01 04:54:21;;;;;;;23.42;12.07;;;17.00;99.90;;;;;;5093369;28;20126;-81
2022/09/01 04:56:51;;;;;;;22.50;11.00;;;17.00;99.90;;;;;;5092077;28;20052;-81
2022/09/01 04:59:19;;;;;;;;;;;16.90;99.90;;;;;;5090310;28;20059;-81
2022/09/01 05:01:49;;;;;;;36.05;12.13;;;17.00;99.90;;;;;;5083646;28;20050;-81
2022/09/01 05:04:26;;;;;;;35.00;11.32;;;16.90;99.90;;;;;;5089550;28;20052;-81
2022/09/01 05:06:59;;;;;;;23.63;12.98;;;17.00;99.90;;;;;;5080917;28;20102;-80
2022/09/01 05:09:34;;;;;;;34.50;14.38;;;17.00;99.90;;;;;;5086908;28;20059;-80
2022/09/01 05:12:09;;;;;;;36.90;15.18;;;17.20;99.90;;;;;;5085310;28;20138;-80
2022/09/01 05:14:45;;;;;;;29.65;15.70;;;17.00;99.90;;;;;;5083743;28;20052;-81
2022/09/01 05:17:13;;;;;;;26.73;15.32;;;17.10;99.90;;;;;;5084060;28;20082;-81
2022/09/01 05:19:42;;;;;;;26.25;15.77;;;17.10;99.90;;;;;;5082388;28;20075;-81
2022/09/01 05:22:09;;;;;;;29.83;17.05;;;17.10;99.90;;;;;;5081687;28;20082;-81
2022/09/01 05:24:36;;;;;;;31.00;16.40;;;17.20;99.90;;;;;;5082079;28;20083;-81
2022/09/01 05:27:09;;;;;;;36.78;17.77;;;17.20;99.90;;;;;;5063057;28;20060;-81
2022/09/01 05:29:37;;;;;;;35.55;16.52;;;17.20;99.90;;;;;;5078236;28;20080;-80
2022/09/01 05:32:08;;;;;;;36.63;15.95;;;17.20;99.90;;;;;;5083402;28;20075;-81
2022/09/01 05:34:37;;;;;;;32.05;16.73;;;17.30;99.90;;;;;;5093220;28;20048;-82
2022/09/01 05:37:07;;;;;;;41.13;17.63;;;17.30;99.90;;;;;;5095838;28;20044;-80
2022/09/01 05:39:36;;;;;;;49.70;17.90;;;17.40;99.90;;;;;;5092129;28;20083;-80
2022/09/01 05:42:07;;;;;;;49.72;19.80;;;17.40;99.90;;;;;;5082775;28;20127;-80
2022/09/01 05:44:43;;;;;;;;;;;17.40;99.90;;;;;;5092785;28;20044;-81
2022/09/01 05:47:14;;;;;;;57.20;19.67;;;17.40;99.90;;;;;;5089362;28;19921;-81
2022/09/01 05:49:48;;;;;;;33.63;18.25;;;17.50;99.90;;;;;;5085631;28;20102;-81
2022/09/01 05:52:15;;;;;;;50.08;20.63;;;17.60;99.90;;;;;;5088343;28;20086;-81
2022/09/01 05:54:42;;;;;;;33.15;20.13;;;17.60;99.90;;;;;;5087030;28;20115;-80
2022/09/01 05:57:09;;;;;;;30.35;18.35;;;17.60;99.90;;;;;;5083181;28;20072;-80
2022/09/01 05:59:56;;;;;;;33.28;20.13;;;17.60;99.90;;;;;;5075858;28;20053;-81
2022/09/01 06:02:24;;;;;;;36.35;22.15;;;17.70;99.90;;;;;;5061569;28;20144;-82
2022/09/01 06:04:55;;;;;;;33.55;21.17;;;17.80;99.90;;;;;;5075718;28;20080;-81
2022/09/01 06:07:22;;;;;;;36.17;22.45;;;17.80;99.90;;;;;;5081454;28;20052;-80
2022/09/01 06:09:52;;;;;;;37.28;23.83;;;17.90;99.90;;;;;;5081873;28;20052;-80
2022/09/01 06:12:22;;;;;;;37.70;21.85;;;17.90;99.90;;;;;;5076129;28;20044;-80
2022/09/01 06:14:52;;;;;;;34.72;21.50;;;17.90;99.90;;;;;;5078283;28;20055;-79
2022/09/01 06:17:23;;;;;;;38.55;20.98;;;17.90;99.90;;;;;;5077700;28;20072;-81
2022/09/01 06:19:54;;;;;;;37.80;21.75;;;18.00;99.90;;;;;;5090072;28;20103;-80
2022/09/01 06:22:22;;;;;;;40.05;21.40;;;18.00;99.90;;;;;;5098345;28;20062;-79
2022/09/01 06:24:53;;;;;;;37.83;20.67;;;18.00;99.90;;;;;;5081342;28;20057;-79
2022/09/01 06:27:26;;;;;;;42.72;23.42;;;18.10;99.90;;;;;;5085970;28;20074;-82
2022/09/01 06:29:54;;;;;;;37.90;20.85;;;18.10;99.90;;;;;;5084563;28;20075;-80
2022/09/01 06:32:20;;;;;;;41.50;22.88;;;18.20;99.90;;;;;;5084493;28;20132;-81
2022/09/01 06:34:50;;;;;;;37.53;21.95;;;18.20;99.90;;;;;;5084246;28;20550;-81
2022/09/01 06:37:21;;;;;;;33.33;20.98;;;18.20;99.90;;;;;;5078588;28;20044;-80
2022/09/01 06:39:49;;;;;;;30.30;17.67;;;18.30;99.90;;;;;;5086971;28;20553;-81
2022/09/01 06:42:16;;;;;;;26.45;17.50;;;18.30;99.90;;;;;;5082178;28;20048;-79
2022/09/01 06:44:44;;;;;;;25.55;16.95;;;18.30;99.90;;;;;;5086053;28;20052;-80
2022/09/01 06:47:11;;;;;;;22.13;15.32;;;18.30;99.90;;;;;;5082416;28;20047;-82
2022/09/01 06:49:39;;;;;;;20.67;13.68;;;18.40;99.90;;;;;;5081535;28;20052;-81
2022/09/01 06:52:07;;;;;;;27.63;13.95;;;18.50;99.90;;;;;;5081244;28;20498;-78
2022/09/01 06:54:34;;;;;;;20.25;12.75;;;18.60;99.90;;;;;;5084896;28;20127;-81
2022/09/01 06:57:02;;;;;;;21.58;14.02;;;18.60;99.90;;;;;;5084399;28;20464;-81
2022/09/01 06:59:50;;;;;;;15.48;12.25;;;18.70;99.90;;;;;;5080430;28;20521;-81
2022/09/01 07:02:19;;;;;;;19.50;13.05;;;18.80;99.90;;;;;;5061640;28;20052;-81
2022/09/01 07:05:06;;;;;;;19.90;11.77;;;18.80;99.90;;;;;;5063277;28;20695;-80
2022/09/01 07:07:33;;;;;;;15.23;11.48;;;18.90;99.90;;;;;;5098502;28;20060;-81
2022/09/01 07:10:22;;;;;;;18.27;11.73;;;19.00;99.90;;;;;;5098181;28;20055;-79
2022/09/01 07:12:51;;;;;;;16.08;11.88;;;19.00;99.90;;;;;;5098105;28;20067;-82
2022/09/01 07:15:41;;;;;;;18.77;11.90;;;19.10;99.90;;;;;;5094018;28;20055;-81
2022/09/01 07:18:30;;;;;;;15.45;11.27;;;19.00;99.90;;;;;;5089536;28;20044;-81
2022/09/01 07:20:58;;;;;;;13.70;11.07;;;19.00;99.90;;;;;;5076644;28;20059;-82
2022/09/01 07:23:33;;;;;;;13.30;10.90;;;19.00;99.90;;;;;;5088854;28;20127;-80
2022/09/01 07:26:21;;;;;;;16.02;11.15;;;18.90;99.90;;;;;;5091952;28;20049;-81
2022/09/01 07:28:52;;;;;;;14.50;10.68;;;18.90;99.90;;;;;;5068636;28;20494;-80
2022/09/01 07:31:42;;;;;;;14.75;10.73;;;18.70;99.90;;;;;;5082418;28;20057;-79
2022/09/01 07:34:29;;;;;;;13.02;10.63;;;18.70;99.90;;;;;;5068072;28;20049;-79
2022/09/01 07:37:05;;;;;;;11.13;9.50;;;18.70;99.90;;;;;;5085465;28;20504;-81
2022/09/01 07:39:52;;;;;;;10.98;9.77;;;18.60;99.90;;;;;;5083445;28;20045;-80
2022/09/01 07:42:21;;;;;;;10.95;9.75;;;18.60;99.90;;;;;;5080614;28;20127;-81
2022/09/01 07:45:10;;;;;;;18.25;11.73;;;18.70;99.90;;;;;;5082146;28;20045;-80
2022/09/01 07:47:54;;;;;;;14.88;10.27;;;18.60;99.90;;;;;;5079425;28;20052;-77
2022/09/01 07:50:23;;;;;;;12.48;10.38;;;18.50;99.90;;;;;;5079853;28;20131;-80
2022/09/01 07:53:07;;;;;;;12.00;9.82;;;18.50;99.90;;;;;;5090107;28;20070;-78
2022/09/01 07:55:38;;;;;;;12.27;9.98;;;18.50;99.90;;;;;;5098078;28;20705;-80
2022/09/01 07:58:05;;;;;;;14.75;9.70;;;18.40;99.90;;;;;;5096139;28;20048;-81
2022/09/01 08:00:33;;;;;;;10.40;8.75;;;18.50;99.90;;;;;;5089280;28;20165;-81
2022/09/01 08:03:00;;;;;;;10.38;9.27;;;18.50;99.90;;;;;;5094687;28;20076;-79
2022/09/01 08:05:27;;;;;;;10.50;8.57;;;18.50;99.90;;;;;;5091116;28;20044;-80
2022/09/01 08:07:54;;;;;;;14.52;7.93;;;18.50;99.90;;;;;;5092549;28;20086;-81
2022/09/01 08:10:21;;;;;;;10.63;8.10;;;18.60;99.90;;;;;;5090545;28;20080;-78
2022/09/01 08:12:49;;;;;;;10.02;8.23;;;18.60;99.90;;;;;;5088815;28;20394;-81
2022/09/01 08:15:24;;;;;;;12.05;9.80;;;18.60;99.90;;;;;;5086663;28;20048;-77
2022/09/01 08:18:12;;;;;;;12.18;10.10;;;18.60;99.90;;;;;;5084782;28;20116;-80
2022/09/01 08:20:46;;;;;;;15.75;11.13;;;18.60;99.90;;;;;;5078713;28;20076;-81
2022/09/01 08:23:17;;;;;;;14.80;11.88;;;18.70;99.90;;;;;;5078710;28;20057;-80
2022/09/01 08:25:45;;;;;;;13.88;11.00;;;18.80;99.90;;;;;;5081400;28;20498;-80
2022/09/01 08:28:13;;;;;;;15.15;10.98;;;19.00;99.90;;;;;;5081498;28;20074;-81
2022/09/01 08:30:42;;;;;;;14.60;10.10;;;19.10;99.90;;;;;;5082314;28;20049;-79
2022/09/01 08:33:18;;;;;;;14.85;11.98;;;19.30;99.90;;;;;;5080971;28;20044;-81
2022/09/01 08:35:47;;;;;;;14.73;10.77;;;19.30;99.90;;;;;;5076555;28;20124;-79
2022/09/01 08:38:14;;;;;;;18.58;11.52;;;19.30;99.90;;;;;;5073076;28;20095;-80
2022/09/01 08:40:42;;;;;;;17.63;13.07;;;19.40;99.90;;;;;;5095135;28;20040;-80
2022/09/01 08:43:34;;;;;;;15.20;13.32;;;19.30;99.90;;;;;;5095707;28;20052;-80
2022/09/01 08:46:12;;;;;;;15.30;12.95;;;19.20;99.90;;;;;;5092751;28;20076;-80
2022/09/01 08:48:45;;;;;;;17.48;13.98;;;19.20;99.90;;;;;;5092787;28;20127;-78
2022/09/01 08:51:45;;;;;;;18.13;14.43;;;19.20;99.90;;;;;;5080508;28;20048;-78
2022/09/01 08:54:31;;;;;;;14.25;12.77;;;19.20;99.90;;;;;;5087780;28;20610;-78
2022/09/01 08:57:05;;;;;;;20.30;14.48;;;19.20;99.90;;;;;;5087416;28;20052;-79
2022/09/01 08:59:32;;;;;;;19.95;14.50;;;19.20;99.90;;;;;;5084750;28;20128;-79
2022/09/01 09:02:23;;;;;;;18.40;14.63;;;19.20;99.90;;;;;;5070765;28;20109;-79
2022/09/01 09:05:09;;;;;;;15.50;13.30;;;19.20;99.90;;;;;;5084476;28;20075;-80
2022/09/01 09:07:55;;;;;;;15.73;13.13;;;19.20;99.90;;;;;;5084924;28;20101;-78
2022/09/01 09:10:48;;;;;;;16.77;12.48;;;19.30;99.90;;;;;;5081579;28;20044;-79
2022/09/01 09:13:35;;;;;;;15.20;12.27;;;19.30;99.90;;;;;;5080840;28;20049;-79
2022/09/01 09:16:16;;;;;;;16.60;12.88;;;19.40;99.90;;;;;;5078174;28;20076;-79
2022/09/01 09:18:49;;;;;;;19.23;13.45;;;19.50;99.90;;;;;;5073344;28;20051;-79
2022/09/01 09:21:28;;;;;;;18.65;12.40;;;19.50;99.90;;;;;;5074637;28;20102;-81
2022/09/01 09:24:06;;;;;;;15.85;12.38;;;19.50;99.90;;;;;;5073308;28;20060;-79
2022/09/01 09:26:32;;;;;;;18.05;13.10;;;19.50;99.90;;;;;;5085200;28;20058;-79
2022/09/01 09:29:14;;;;;;;14.55;11.20;;;19.60;99.90;;;;;;5091138;28;20456;-79
2022/09/01 09:31:51;;;;;;;13.95;11.73;;;19.70;99.90;;;;;;5090049;28;20048;-79
2022/09/01 09:34:31;;;;;;;15.90;12.82;;;19.70;99.90;;;;;;5088797;28;20094;-79
2022/09/01 09:37:26;;;;;;;19.25;12.40;;;19.80;99.90;;;;;;5087637;28;20617;-79
2022/09/01 09:40:18;;;;;;;16.08;12.95;;;20.00;99.90;;;;;;5083840;28;20076;-80
2022/09/01 09:42:54;;;;;;;19.10;14.68;;;20.10;99.90;;;;;;5083291;28;20056;-79
2022/09/01 09:45:39;;;;;;;19.23;15.43;;;20.20;99.90;;;;;;5081902;28;20442;-78
2022/09/01 09:48:25;;;;;;;19.83;14.80;;;20.20;99.90;;;;;;5082905;28;20052;-81
2022/09/01 09:50:52;;;;;;;24.33;15.18;;;20.30;99.90;;;;;;5092179;28;20056;-80
2022/09/01 09:53:25;;;;;;;20.77;14.50;;;20.20;99.90;;;;;;5082489;28;20044;-78
2022/09/01 09:56:08;;;;;;;20.27;15.43;;;20.30;99.90;;;;;;5075288;28;20095;-80
2022/09/01 09:58:41;;;;;;;20.88;14.80;;;20.30;99.90;;;;;;5079483;28;20092;-80
2022/09/01 10:01:21;;;;;;;17.63;14.20;;;20.30;99.90;;;;;;5068699;28;20048;-82
2022/09/01 10:03:53;;;;;;;20.00;14.57;;;20.20;99.90;;;;;;5065961;28;20078;-79
2022/09/01 10:06:33;;;;;;;16.83;14.45;;;20.10;99.90;;;;;;5061678;22;20057;-81
2022/09/01 10:09:14;;;;;;;;;;;20.20;99.90;;;;;;5016824;28;20321;-81
2022/09/01 10:11:42;;;;;;;18.70;13.35;;;20.20;99.90;;;;;;5021133;28;19921;-81
2022/09/01 10:14:36;;;;;;;15.82;13.68;;;20.20;99.90;;;;;;5036901;28;20053;-82
2022/09/01 10:17:33;;;;;;;16.58;13.23;;;20.10;99.90;;;;;;4995185;28;20050;-81
2022/09/01 10:20:20;;;;;;;15.40;13.45;;;20.10;99.90;;;;;;4998572;28;20403;-82
2022/09/01 10:22:48;;;;;;;16.25;12.82;;;20.00;99.90;;;;;;5000043;28;20496;-82
2022/09/01 10:25:23;;;;;;;16.90;13.50;;;20.10;99.90;;;;;;5004872;28;20078;-82
2022/09/01 10:28:13;;;;;;;17.58;14.32;;;20.00;99.90;;;;;;5012348;28;20069;-80
2022/09/01 10:30:47;;;;;;;20.65;13.63;;;20.00;99.90;;;;;;5016657;28;20081;-80
2022/09/01 10:33:16;;;;;;;18.40;13.48;;;20.00;99.90;;;;;;5014226;28;20053;-84
2022/09/01 10:35:50;;;;;;;14.45;12.82;;;20.10;99.90;;;;;;4996231;28;20535;-82
2022/09/01 10:38:28;;;;;;;18.27;12.85;;;20.10;99.90;;;;;;5007010;28;20069;-82
2022/09/01 10:41:06;;;;;;;13.98;11.77;;;20.10;99.90;;;;;;5006453;28;20069;-82
2022/09/01 10:43:44;;;;;;;14.40;11.70;;;20.20;99.90;;;;;;5003570;28;20050;-84
2022/09/01 10:46:19;;;;;;;16.77;11.85;;;20.30;99.90;;;;;;5006191;28;20066;-82
2022/09/01 10:49:19;;;;;;;13.52;11.18;;;20.30;99.90;;;;;;5017608;28;20064;-81
2022/09/01 10:51:55;;;;;;;14.77;10.48;;;20.30;99.90;;;;;;5018381;28;20085;-81
2022/09/01 10:54:37;;;;;;;14.55;11.32;;;20.40;99.90;;;;;;5014362;28;20042;-81
2022/09/01 10:57:38;;;;;;;12.02;9.40;;;20.40;99.90;;;;;;4994491;28;20047;-81
2022/09/01 11:00:34;;;;;;;18.55;10.55;;;20.50;99.90;;;;;;5022461;28;20049;-81
2022/09/01 11:03:32;;;;;;;12.85;10.63;;;20.50;99.90;;;;;;5014628;28;20465;-82
2022/09/01 11:06:08;;;;;;;12.85;9.52;;;20.60;99.90;;;;;;5008413;28;20089;-82
2022/09/01 11:09:05;;;;;;;13.77;9.88;;;20.70;99.90;;;;;;5004534;28;20056;-82
2022/09/01 11:11:40;;;;;;;11.50;9.32;;;20.80;99.90;;;;;;5013531;28;20078;-82
2022/09/01 11:14:25;;;;;;;16.70;11.45;;;20.90;99.90;;;;;;5014246;28;20043;-80
2022/09/01 11:17:27;;;;;;;12.63;10.10;;;21.00;99.90;;;;;;5002408;28;20054;-82
2022/09/01 11:20:39;;;;;;;13.98;10.48;;;21.00;99.90;;;;;;4999914;28;20073;-83
2022/09/01 11:23:29;;;;;;;13.10;10.23;;;21.00;99.90;;;;;;4991022;28;20064;-83
2022/09/01 11:26:34;;;;;;;15.65;11.07;;;21.10;99.90;;;;;;5009507;28;20057;-79
2022/09/01 11:29:02;;;;;;;13.02;9.15;;;21.20;99.90;;;;;;5007711;28;20051;-81
2022/09/01 11:31:40;;;;;;;12.63;10.05;;;21.20;99.90;;;;;;5009214;28;20050;-82
2022/09/01 11:34:27;;;;;;;14.15;10.73;;;21.30;99.90;;;;;;5010398;28;20042;-82
2022/09/01 11:36:59;;;;;;;12.68;9.52;;;21.50;99.90;;;;;;5008738;28;20074;-82
2022/09/01 11:39:31;;;;;;;10.98;9.18;;;21.50;99.90;;;;;;5005679;28;20050;-80
2022/09/01 11:42:19;;;;;;;14.48;11.98;;;21.70;99.90;;;;;;5009418;28;20042;-82
2022/09/01 11:45:05;;;;;;;14.60;10.38;;;21.80;99.90;;;;;;4987978;28;20166;-81
2022/09/01 11:47:43;;;;;;;12.50;9.25;;;21.90;99.90;;;;;;5001615;28;20050;-83
2022/09/01 11:50:24;;;;;;;12.18;9.82;;;21.90;99.90;;;;;;5003388;28;20088;-82
2022/09/01 11:52:53;;;;;;;15.27;11.32;;;22.00;99.90;;;;;;5010075;28;20054;-82
2022/09/01 11:55:31;;;;;;;14.77;9.82;;;22.00;99.90;;;;;;5018023;28;20046;-83
2022/09/01 11:57:58;;;;;;;12.70;9.65;;;22.00;99.90;;;;;;5002575;28;20065;-84
2022/09/01 12:00:37;;;;;;;13.52;9.45;;;22.10;99.90;;;;;;5003980;28;20050;-85
2022/09/01 12:03:25;;;;;;;11.63;10.43;;;22.20;99.90;;;;;;4991249;28;20497;-84
2022/09/01 12:06:02;;;;;;;14.18;9.43;;;22.00;99.90;;;;;;5000940;28;20075;-86
2022/09/01 12:08:34;;;;;;;13.18;9.60;;;22.20;99.90;;;;;;5023099;28;20073;-83
2022/09/01 12:11:20;;;;;;;13.35;9.70;;;22.30;99.90;;;;;;5001356;28;20077;-84
2022/09/01 12:14:09;;;;;;;13.63;10.20;;;22.20;99.90;;;;;;5015971;28;20503;-84
2022/09/01 12:16:40;;;;;;;13.23;10.90;;;22.40;99.90;;;;;;5001368;28;20053;-82
2022/09/01 12:19:20;;;;;;;11.38;9.68;;;22.40;99.90;;;;;;4999615;28;20056;-83
2022/09/01 12:22:03;;;;;;;14.40;9.97;;;22.50;99.90;;;;;;5013706;28;20054;-82
2022/09/01 12:24:34;;;;;;;11.27;10.07;;;22.30;99.90;;;;;;5001316;28;20054;-83
2022/09/01 12:27:01;;;;;;;11.85;9.43;;;22.30;99.90;;;;;;4996725;28;20105;-84
2022/09/01 12:29:28;;;;;;;12.63;9.50;;;22.40;99.90;;;;;;4981177;28;20468;-82
2022/09/01 12:31:59;;;;;;;13.82;10.30;;;22.30;99.90;;;;;;4980143;28;20061;-84
2022/09/01 12:34:32;;;;;;;11.57;10.25;;;22.40;99.90;;;;;;4993419;28;20050;-84
2022/09/01 12:37:06;;;;;;;15.05;9.55;;;22.50;99.90;;;;;;5013895;28;20084;-84
2022/09/01 12:39:37;;;;;;;12.02;9.60;;;22.60;99.90;;;;;;4981182;28;20058;-84
2022/09/01 12:42:31;;;;;;;13.85;8.77;;;22.60;99.90;;;;;;4999761;28;20563;-83
2022/09/01 12:45:09;;;;;;;11.80;8.75;;;22.60;99.90;;;;;;5000310;28;20065;-82
2022/09/01 12:47:36;;;;;;;10.07;8.77;;;22.60;99.90;;;;;;5000632;28;20588;-83
2022/09/01 12:50:25;;;;;;;12.18;8.13;;;22.60;99.90;;;;;;4984297;28;20092;-83
2022/09/01 12:53:27;;;;;;;11.82;8.32;;;22.70;99.90;;;;;;5004193;28;20063;-82
2022/09/01 12:56:03;;;;;;;11.75;9.82;;;22.90;99.90;;;;;;4988685;28;20065;-82
2022/09/01 12:58:31;;;;;;;14.63;9.57;;;22.90;99.90;;;;;;4984339;28;20060;-84
2022/09/01 13:00:59;;;;;;;11.02;8.85;;;23.00;99.90;;;;;;4993282;28;20081;-83
2022/09/01 13:03:28;;;;;;;9.15;8.02;;;23.10;99.90;;;;;;4990746;28;20073;-83
2022/09/01 13:06:00;;;;;;;10.35;7.05;;;23.10;99.90;;;;;;4988808;28;20050;-84
2022/09/01 13:08:33;;;;;;;10.48;6.53;;;23.40;99.90;;;;;;4981591;28;20089;-83
2022/09/01 13:11:13;;;;;;;11.25;6.47;;;23.10;99.90;;;;;;4993414;28;20547;-84
2022/09/01 13:13:40;;;;;;;12.40;6.47;;;23.00;99.90;;;;;;4995355;28;20135;-83
2022/09/01 13:16:12;;;;;;;5.88;4.88;;;23.00;99.90;;;;;;4979518;28;20073;-84
2022/09/01 13:18:41;;;;;;;9.82;6.15;;;23.00;99.90;;;;;;4995175;28;20054;-84
2022/09/01 13:21:29;;;;;;;8.70;5.65;;;22.90;99.90;;;;;;5013508;28;20049;-84